Time;durP1;ratioP1;P1;durP2;ratioP2;P2;SDS_P1;SDS_P2;PMS_P1;PMS_P2;Temp;Humidity;BMP_temperature;BMP_pressure;BME280_temperature;BME280_humidity;BME280_pressure;Samples;Min_cycle;Max_cycle;Signal;HPM_P1;HPM_P2
2022/07/22 00:00:13;;;;;;;18.20;11.20;;;;;;;20.96;66.32;99932.90;105009;1274;72520;-70
2022/07/22 00:03:04;;;;;;;19.00;11.40;;;;;;;20.91;66.72;99936.04;105295;1274;68349;-70
2022/07/22 00:05:53;;;;;;;18.30;10.60;;;;;;;20.86;66.88;99931.23;105173;1274;74479;-69
2022/07/22 00:08:41;;;;;;;17.90;10.50;;;;;;;20.82;67.10;99937.39;105134;1274;59672;-70
2022/07/22 00:11:29;;;;;;;19.50;12.00;;;;;;;20.76;67.59;99932.13;104984;1274;61019;-69
2022/07/22 00:14:17;;;;;;;18.10;11.40;;;;;;;20.72;67.83;99939.77;105084;1274;74776;-69
2022/07/22 00:17:05;;;;;;;19.70;11.50;;;;;;;20.68;68.10;99944.77;105105;1274;69567;-69
2022/07/22 00:19:53;;;;;;;20.90;12.50;;;;;;;20.64;68.47;99945.87;104946;1273;72017;-69
2022/07/22 00:22:41;;;;;;;18.80;11.80;;;;;;;20.59;68.78;99946.64;105008;1274;59785;-70
2022/07/22 00:25:29;;;;;;;20.70;13.10;;;;;;;20.55;68.98;99948.03;104988;1274;61043;-70
2022/07/22 00:28:18;;;;;;;22.20;12.30;;;;;;;20.50;69.42;99946.77;105005;1274;74003;-69
2022/07/22 00:31:06;;;;;;;20.30;12.50;;;;;;;20.47;69.60;99947.14;104988;1274;67438;-70
2022/07/22 00:33:54;;;;;;;20.70;12.50;;;;;;;20.44;69.94;99955.47;105050;1274;74386;-71
2022/07/22 00:36:42;;;;;;;21.20;13.50;;;;;;;20.41;70.29;99952.15;105053;1274;59684;-70
2022/07/22 00:39:30;;;;;;;18.70;12.10;;;;;;;20.38;70.46;99950.69;104996;1274;60974;-69
2022/07/22 00:42:18;;;;;;;20.70;12.30;;;;;;;20.34;70.90;99949.59;104831;1273;74736;-69
2022/07/22 00:45:11;;;;;;;19.90;13.00;;;;;;;20.30;71.36;99948.92;105118;1273;69461;-70
2022/07/22 00:48:02;;;;;;;22.60;13.30;;;;;;;20.25;71.73;99950.36;105037;1272;74022;-70
2022/07/22 00:50:52;;;;;;;21.10;13.20;;;;;;;20.20;72.18;99947.55;105059;1274;59769;-71
2022/07/22 00:53:40;;;;;;;22.00;12.80;;;;;;;20.18;72.30;99946.39;104975;1274;59676;-69
2022/07/22 00:56:29;;;;;;;21.20;13.30;;;;;;;20.14;72.73;99941.55;104962;1274;73187;-70
2022/07/22 00:59:17;;;;;;;20.40;13.10;;;;;;;20.11;72.79;99941.55;104946;1272;68356;-69
2022/07/22 01:02:05;;;;;;;20.90;12.80;;;;;;;20.10;72.73;99940.16;105049;1272;73175;-71
2022/07/22 01:04:53;;;;;;;22.10;12.30;;;;;;;20.07;72.98;99933.73;104996;1274;59672;-70
2022/07/22 01:07:42;;;;;;;17.40;12.70;;;;;;;20.05;72.95;99927.47;104985;1272;60972;-70
2022/07/22 01:10:31;;;;;;;26.70;12.70;;;;;;;20.03;72.82;99928.10;105278;1274;73694;-73
2022/07/22 01:13:19;;;;;;;23.30;12.50;;;;;;;20.02;73.01;99930.27;105098;1272;67396;-69
2022/07/22 01:16:10;;;;;;;21.10;12.80;;;;;;;20.00;73.01;99923.69;105112;1274;73015;-70
2022/07/22 01:19:00;;;;;;;20.20;12.90;;;;;;;19.97;73.12;99924.14;105101;1274;59653;-70
2022/07/22 01:21:48;;;;;;;20.20;13.30;;;;;;;19.95;73.26;99917.72;104945;1273;60720;-70
2022/07/22 01:24:36;;;;;;;19.70;12.10;;;;;;;19.92;73.34;99916.27;104944;1274;75421;-70
2022/07/22 01:27:25;;;;;;;19.70;13.50;;;;;;;19.89;73.58;99912.48;105158;1274;68950;-68
2022/07/22 01:30:13;;;;;;;20.50;13.70;;;;;;;19.86;73.76;99914.33;104907;1273;73448;-69
2022/07/22 01:33:02;;;;;;;20.30;12.80;;;;;;;19.83;73.85;99916.69;104907;1274;59657;-71
2022/07/22 01:35:52;;;;;;;22.60;13.40;;;;;;;19.79;74.12;99916.60;105053;1273;60504;-71
2022/07/22 01:38:40;;;;;;;22.90;12.60;;;;;;;19.75;74.22;99915.83;104914;1274;73853;-69
2022/07/22 01:41:30;;;;;;;20.70;12.30;;;;;;;19.72;74.56;99917.86;105147;1274;69127;-70
2022/07/22 01:44:19;;;;;;;21.80;14.50;;;;;;;19.70;74.55;99914.13;105176;1274;73547;-70
2022/07/22 01:47:08;;;;;;;23.90;12.80;;;;;;;19.66;74.71;99909.08;105134;1273;59785;-71
2022/07/22 01:49:56;;;;;;;20.30;12.70;;;;;;;19.64;74.98;99913.98;104988;1274;59593;-71
2022/07/22 01:52:44;;;;;;;21.20;12.60;;;;;;;19.61;74.99;99913.08;104917;1274;73706;-72
2022/07/22 01:55:33;;;;;;;19.10;12.30;;;;;;;19.58;75.22;99909.65;105064;1274;68087;-71
2022/07/22 01:58:21;;;;;;;21.10;12.90;;;;;;;19.53;75.50;99903.06;104985;1274;74758;-70
2022/07/22 02:01:11;;;;;;;24.20;13.20;;;;;;;19.49;75.86;99906.93;105175;1273;60559;-71
2022/07/22 02:03:59;;;;;;;20.60;12.60;;;;;;;19.46;76.25;99903.05;105143;1272;61530;-70
2022/07/22 02:06:48;;;;;;;21.90;12.60;;;;;;;19.43;76.15;99901.05;104985;1274;73742;-69
2022/07/22 02:09:36;;;;;;;21.40;13.30;;;;;;;19.40;76.44;99899.71;105259;1272;68859;-71
2022/07/22 02:12:24;;;;;;;20.40;13.10;;;;;;;19.37;76.69;99896.77;105202;1274;71294;-70
2022/07/22 02:15:12;;;;;;;20.50;13.50;;;;;;;19.35;76.81;99903.36;104908;1273;59783;-69
2022/07/22 02:18:29;;;;;;;22.20;12.70;;;;;;;19.31;76.94;99899.33;105002;1273;61968;-70
2022/07/22 02:21:17;;;;;;;21.40;13.00;;;;;;;19.27;77.40;99889.77;105026;1274;74202;-69
2022/07/22 02:24:05;;;;;;;23.10;14.10;;;;;;;19.24;77.54;99898.16;104910;1273;68986;-69
2022/07/22 02:26:53;;;;;;;21.10;13.20;;;;;;;19.20;77.70;99913.19;104893;1273;73342;-70
2022/07/22 02:29:41;;;;;;;22.10;13.50;;;;;;;19.16;77.93;99921.20;104970;1274;59863;-69
2022/07/22 02:32:30;;;;;;;23.10;13.40;;;;;;;19.12;78.17;99928.39;104857;1274;59721;-70
2022/07/22 02:35:18;;;;;;;23.00;13.60;;;;;;;19.07;78.37;99925.35;104845;1273;72546;-70
2022/07/22 02:38:06;;;;;;;18.60;11.60;;;;;;;19.03;78.61;99928.96;105147;1272;68071;-70
2022/07/22 02:40:55;;;;;;;20.30;14.00;;;;;;;19.00;78.72;99929.57;105095;1274;73349;-70
2022/07/22 02:43:43;;;;;;;21.30;13.30;;;;;;;18.96;78.99;99939.48;105074;1273;59973;-68
2022/07/22 02:46:32;;;;;;;21.80;12.50;;;;;;;18.91;79.18;99943.09;104979;1273;59706;-71
2022/07/22 02:49:28;;;;;;;19.20;12.80;;;;;;;18.88;79.29;99940.65;105010;1272;74640;-70
2022/07/22 02:52:17;;;;;;;19.60;12.90;;;;;;;18.85;79.40;99944.67;104925;1273;69684;-67
2022/07/22 02:55:06;;;;;;;22.70;13.20;;;;;;;18.84;79.66;99942.10;104882;1274;73706;-71
2022/07/22 02:57:56;;;;;;;22.20;13.10;;;;;;;18.85;79.91;99936.29;105339;1274;59704;-71
2022/07/22 03:00:45;;;;;;;22.20;12.80;;;;;;;18.85;79.87;99938.59;104866;1274;60615;-70
2022/07/22 03:03:33;;;;;;;20.00;13.30;;;;;;;18.85;79.94;99943.96;105043;1272;72783;-71
2022/07/22 03:06:22;;;;;;;19.10;13.30;;;;;;;18.83;80.14;99946.71;105321;1273;68676;-71
2022/07/22 03:09:29;;;;;;;20.00;13.00;;;;;;;18.82;80.31;99943.98;105598;1274;73400;-70
2022/07/22 03:12:17;;;;;;;20.40;12.80;;;;;;;18.81;80.31;99944.80;105880;1274;60343;-72
2022/07/22 03:15:07;;;;;;;21.00;12.30;;;;;;;18.79;80.35;99948.64;105049;1274;62116;-71
2022/07/22 03:17:55;;;;;;;21.10;12.50;;;;;;;18.79;80.54;99946.96;105094;1274;74490;-71
2022/07/22 03:20:44;;;;;;;21.50;13.10;;;;;;;18.77;80.53;99943.06;104997;1273;69112;-70
2022/07/22 03:23:32;;;;;;;21.50;12.90;;;;;;;18.78;80.53;99944.77;105018;1274;73466;-71
2022/07/22 03:26:23;;;;;;;22.60;13.40;;;;;;;18.81;80.79;99950.23;104811;1274;59565;-70
2022/07/22 03:29:11;;;;;;;20.70;13.60;;;;;;;18.82;80.83;99956.55;105009;1274;61793;-71
2022/07/22 03:31:59;;;;;;;19.80;13.70;;;;;;;18.84;80.91;99966.79;104826;1272;72414;-71
2022/07/22 03:35:00;;;;;;;23.20;14.50;;;;;;;18.86;80.89;99971.41;104820;1273;68266;-71
2022/07/22 03:37:51;;;;;;;21.00;13.00;;;;;;;18.91;81.04;99982.16;105356;1273;73414;-71
2022/07/22 03:40:41;;;;;;;24.30;14.20;;;;;;;18.97;81.02;99984.11;105018;1273;60304;-72
2022/07/22 03:43:30;;;;;;;17.50;13.10;;;;;;;19.08;81.08;99993.03;105093;1274;61885;-72
2022/07/22 03:46:18;;;;;;;20.90;13.90;;;;;;;19.21;80.89;99998.11;105095;1272;73303;-72
2022/07/22 03:49:07;;;;;;;19.70;13.30;;;;;;;19.39;80.56;100003.81;105163;1274;69566;-73
2022/07/22 03:51:55;;;;;;;20.90;12.90;;;;;;;19.55;80.06;100010.02;104858;1273;73344;-73
2022/07/22 03:54:45;;;;;;;23.80;13.50;;;;;;;19.71;79.83;100013.34;105072;1273;59712;-71
2022/07/22 03:57:34;;;;;;;18.10;12.70;;;;;;;19.84;79.22;100014.83;104921;1274;60612;-72
2022/07/22 04:00:27;;;;;;;19.90;13.00;;;;;;;19.98;78.84;100010.62;104982;1274;73250;-73
2022/07/22 04:03:16;;;;;;;21.20;13.20;;;;;;;20.13;78.19;99995.16;105052;1274;69552;-74
2022/07/22 04:06:07;;;;;;;20.80;11.70;;;;;;;20.28;77.60;99988.15;105288;1274;73863;-73
2022/07/22 04:09:03;;;;;;;21.30;14.20;;;;;;;20.43;76.96;99980.97;104848;1274;59563;-72
2022/07/22 04:11:52;;;;;;;19.60;12.80;;;;;;;20.56;76.45;99978.48;104761;1273;61211;-73
2022/07/22 04:14:42;;;;;;;24.00;14.30;;;;;;;20.68;76.05;99971.68;104761;1274;73878;-71
2022/07/22 04:17:30;;;;;;;20.60;13.40;;;;;;;20.78;75.69;99956.05;104774;1274;69817;-72
2022/07/22 04:20:19;;;;;;;18.20;13.00;;;;;;;20.85;75.12;99955.15;104829;1274;74243;-73
2022/07/22 04:23:28;;;;;;;19.50;13.50;;;;;;;20.91;74.86;99955.48;105154;1274;59771;-72
2022/07/22 04:26:26;;;;;;;21.70;13.60;;;;;;;21.00;74.41;99946.71;104863;1274;61076;-72
2022/07/22 04:29:14;;;;;;;21.60;13.20;;;;;;;21.09;74.14;99938.50;104752;1273;72192;-72
2022/07/22 04:32:02;;;;;;;21.20;13.10;;;;;;;21.22;73.61;99935.26;104851;1274;68707;-74
2022/07/22 04:34:51;;;;;;;20.70;13.30;;;;;;;21.39;72.98;99933.89;105055;1274;73946;-72
2022/07/22 04:37:39;;;;;;;17.70;13.10;;;;;;;21.62;72.42;99929.00;105128;1274;59839;-71
2022/07/22 04:40:27;;;;;;;20.80;13.50;;;;;;;21.89;71.81;99926.23;104795;1273;59653;-71
2022/07/22 04:43:15;;;;;;;21.80;13.20;;;;;;;22.11;71.09;99929.52;105001;1273;72416;-72
2022/07/22 04:46:05;;;;;;;19.80;12.70;;;;;;;22.26;70.61;99932.86;104889;1274;68197;-73
2022/07/22 04:48:53;;;;;;;26.60;13.20;;;;;;;22.33;69.75;99926.83;104727;1274;73486;-73
2022/07/22 04:51:42;;;;;;;22.40;11.90;;;;;;;22.37;68.82;99916.02;104918;1274;59872;-71
2022/07/22 04:54:36;;;;;;;22.90;12.40;;;;;;;22.42;68.41;99906.70;104762;1276;61199;-72
2022/07/22 04:57:25;;;;;;;26.00;12.90;;;;;;;22.50;68.41;99912.83;104921;1277;74148;-72
2022/07/22 05:00:15;;;;;;;20.40;12.50;;;;;;;22.55;67.71;99913.35;104866;1274;69610;-70
2022/07/22 05:03:10;;;;;;;22.40;11.90;;;;;;;22.64;67.43;99915.48;104694;1277;72947;-73
2022/07/22 05:06:00;;;;;;;27.10;12.90;;;;;;;22.75;66.96;99923.87;104932;1274;59667;-71
2022/07/22 05:08:52;;;;;;;22.80;12.70;;;;;;;22.84;66.27;99932.16;104709;1274;60992;-74
2022/07/22 05:11:41;;;;;;;23.80;12.60;;;;;;;22.89;66.23;99935.14;104998;1274;74839;-72
2022/07/22 05:14:30;;;;;;;19.10;12.40;;;;;;;22.99;66.32;99927.96;105186;1274;67644;-72
2022/07/22 05:17:18;;;;;;;19.60;11.30;;;;;;;23.15;66.27;99925.69;104786;1276;73526;-72
2022/07/22 05:20:39;;;;;;;20.00;12.40;;;;;;;23.42;65.46;99947.51;105121;1273;59640;-72
2022/07/22 05:23:27;;;;;;;24.20;11.30;;;;;;;23.61;64.07;99946.20;104874;1274;324572;-71
2022/07/22 05:26:17;;;;;;;25.40;11.80;;;;;;;23.70;63.82;99949.50;104890;1273;72398;-72
2022/07/22 05:29:07;;;;;;;21.90;11.50;;;;;;;23.63;63.86;99955.73;105295;1272;66854;-75
2022/07/22 05:31:55;;;;;;;24.00;12.70;;;;;;;23.56;65.50;99957.30;105080;1274;73414;-74
2022/07/22 05:34:44;;;;;;;21.60;11.70;;;;;;;23.41;67.59;99954.19;105344;1273;59653;-75
2022/07/22 05:37:32;;;;;;;23.20;12.70;;;;;;;23.11;69.69;99963.50;105049;1274;59659;-74
2022/07/22 05:40:21;;;;;;;28.40;13.90;;;;;;;22.86;71.70;99968.28;105093;1273;72979;-74
2022/07/22 05:43:09;;;;;;;28.20;14.10;;;;;;;22.70;74.10;99963.23;105057;1273;66523;-75
2022/07/22 05:45:57;;;;;;;23.80;13.10;;;;;;;22.55;75.47;99979.39;104987;1273;74497;-74
2022/07/22 05:48:45;;;;;;;23.50;12.70;;;;;;;22.26;77.63;100006.16;105005;1274;61354;-75
2022/07/22 05:51:34;;;;;;;33.70;14.70;;;;;;;21.84;80.76;100036.61;105094;1274;59537;-73
2022/07/22 05:54:23;;;;;;;23.60;14.00;;;;;;;21.48;80.72;100008.20;104937;1274;72433;-75
2022/07/22 05:57:10;;;;;;;31.30;14.90;;;;;;;21.32;81.55;99952.23;105127;1273;69568;-77
2022/07/22 05:59:59;;;;;;;32.30;14.50;;;;;;;21.23;83.41;99950.52;104967;1273;72934;-75
2022/07/22 06:02:47;;;;;;;22.90;13.70;;;;;;;21.17;84.24;99948.16;105232;1273;60829;-74
2022/07/22 06:05:38;;;;;;;25.10;14.80;;;;;;;21.13;85.23;99947.23;105048;1274;59834;-74
2022/07/22 06:08:31;;;;;;;30.00;15.80;;;;;;;21.09;85.94;99955.44;105131;1274;71839;-76
2022/07/22 06:11:19;;;;;;;27.50;15.50;;;;;;;21.03;86.31;99941.39;105066;1273;68152;-75
2022/07/22 06:14:07;;;;;;;29.80;16.80;;;;;;;21.01;86.39;99938.12;105252;1274;73916;-75
2022/07/22 06:16:55;;;;;;;29.00;17.30;;;;;;;20.99;86.86;99916.50;105089;1274;59817;-77
2022/07/22 06:19:43;;;;;;;28.10;15.80;;;;;;;21.01;86.95;99923.29;105355;1273;59172;-76
2022/07/22 06:22:31;;;;;;;30.20;16.80;;;;;;;20.99;87.10;99938.71;105381;1274;73474;-74
2022/07/22 06:25:19;;;;;;;28.70;17.80;;;;;;;20.99;87.38;99948.08;105304;1274;69269;-76
2022/07/22 06:28:29;;;;;;;27.10;16.10;;;;;;;21.01;88.43;99949.39;105255;1274;71336;-75
2022/07/22 06:31:17;;;;;;;26.80;16.40;;;;;;;21.07;88.88;99953.00;105249;1274;60000;-76
2022/07/22 06:34:08;;;;;;;26.40;15.60;;;;;;;21.10;88.88;99956.48;105229;1274;60576;-75
2022/07/22 06:37:10;;;;;;;25.60;15.20;;;;;;;21.12;87.71;99965.61;105173;1273;72025;-75
2022/07/22 06:39:58;;;;;;;24.90;14.50;;;;;;;21.10;86.65;99969.06;105058;1274;68570;-75
2022/07/22 06:43:09;;;;;;;19.70;12.50;;;;;;;21.10;85.21;99970.89;106316;1274;71210;-73
2022/07/22 06:46:18;;;;;;;22.50;15.00;;;;;;;21.10;85.13;99973.55;106208;1273;59628;-73
2022/07/22 06:49:11;;;;;;;20.30;13.50;;;;;;;21.19;84.92;99967.65;105867;1274;61241;-75
2022/07/22 06:52:03;;;;;;;22.10;14.10;;;;;;;21.34;85.09;99967.57;106006;1273;74030;-76
2022/07/22 06:54:51;;;;;;;23.90;14.20;;;;;;;21.43;84.87;99962.95;105363;1274;67409;-75
2022/07/22 06:57:40;;;;;;;19.90;12.90;;;;;;;21.39;84.91;99965.45;105134;1274;72987;-77
2022/07/22 07:00:29;;;;;;;26.20;15.50;;;;;;;21.25;85.04;99967.26;105018;1273;61561;-74
2022/07/22 07:03:38;;;;;;;21.10;15.00;;;;;;;21.13;85.98;99983.66;105238;1274;59577;-73
2022/07/22 07:06:28;;;;;;;24.40;15.30;;;;;;;21.05;86.85;99987.22;105154;1273;73301;-73
2022/07/22 07:09:31;;;;;;;22.90;15.80;;;;;;;21.00;88.06;99998.27;105347;1273;66786;-75
2022/07/22 07:12:40;;;;;;;28.50;18.10;;;;;;;20.97;89.15;100007.52;104966;1274;72027;-73
2022/07/22 07:15:39;;;;;;;25.30;17.60;;;;;;;20.96;89.41;99998.73;105069;1274;59703;-73
2022/07/22 07:18:28;;;;;;;28.30;18.30;;;;;;;21.02;90.05;99996.05;104945;1274;62526;-74
2022/07/22 07:21:17;;;;;;;29.10;21.40;;;;;;;21.06;89.96;99989.02;105087;1274;73183;-75
2022/07/22 07:24:06;;;;;;;27.50;16.90;;;;;;;21.12;89.80;99991.79;104759;1273;68630;-75
2022/07/22 07:26:56;;;;;;;22.40;15.20;;;;;;;21.14;89.39;99997.65;104806;1274;73154;-75
2022/07/22 07:29:45;;;;;;;21.80;14.10;;;;;;;21.07;88.62;100004.81;104753;1274;59783;-75
2022/07/22 07:32:33;;;;;;;25.50;15.40;;;;;;;21.01;88.10;100005.16;104980;1274;60666;-75
2022/07/22 07:35:22;;;;;;;25.60;15.10;;;;;;;20.97;88.05;100004.58;105257;1274;71840;-75
2022/07/22 07:38:18;;;;;;;24.20;15.20;;;;;;;20.89;88.72;100029.18;105274;1274;66670;-75
2022/07/22 07:41:08;;;;;;;27.70;18.50;;;;;;;20.77;89.82;100043.61;104976;1274;72860;-74
2022/07/22 07:43:58;;;;;;;26.30;17.40;;;;;;;20.71;89.95;100046.05;105077;1274;60052;-74
2022/07/22 07:46:48;;;;;;;27.60;17.80;;;;;;;20.71;90.34;100049.86;105337;1274;59795;-76
2022/07/22 07:49:36;;;;;;;28.80;17.30;;;;;;;20.71;90.64;100049.11;105164;1274;73678;-75
2022/07/22 07:52:24;;;;;;;25.10;15.80;;;;;;;20.70;90.64;100041.36;104968;1273;69828;-77
2022/07/22 07:55:13;;;;;;;24.00;14.70;;;;;;;20.73;90.98;100035.82;104998;1272;73995;-76
2022/07/22 07:58:03;;;;;;;18.50;13.10;;;;;;;20.77;91.02;100037.42;104981;1273;59679;-75
2022/07/22 08:00:52;;;;;;;22.10;14.10;;;;;;;20.79;90.43;100031.83;105151;1274;60535;-76
2022/07/22 08:03:41;;;;;;;21.50;15.10;;;;;;;20.91;90.63;100029.13;105153;1274;74046;-75
2022/07/22 08:06:30;;;;;;;23.70;14.90;;;;;;;21.05;89.67;100020.69;104990;1274;67730;-77
2022/07/22 08:09:18;;;;;;;22.40;14.50;;;;;;;21.19;89.09;100015.81;105050;1274;72271;-75
2022/07/22 08:12:06;;;;;;;22.70;15.00;;;;;;;21.33;89.04;100014.59;104949;1274;59720;-74
2022/07/22 08:15:21;;;;;;;21.10;14.20;;;;;;;21.38;87.72;100011.45;104985;1274;59680;-77
2022/07/22 08:18:13;;;;;;;18.70;13.30;;;;;;;21.33;87.91;100012.56;104941;1274;73466;-77
2022/07/22 08:21:02;;;;;;;20.50;13.60;;;;;;;21.31;88.58;100013.54;104864;1274;66537;-76
2022/07/22 08:24:01;;;;;;;21.20;14.30;;;;;;;21.28;88.89;100008.55;104994;1274;71433;-75
2022/07/22 08:26:50;;;;;;;23.40;15.00;;;;;;;21.35;88.91;100005.34;104922;1274;59964;-73
2022/07/22 08:29:39;;;;;;;21.30;14.40;;;;;;;21.49;88.35;99999.83;105258;1274;62062;-75
2022/07/22 08:32:28;;;;;;;22.70;13.90;;;;;;;21.70;88.03;99995.77;104968;1274;74816;-74
2022/07/22 08:35:16;;;;;;;25.30;17.00;;;;;;;21.99;86.72;99993.29;104948;1274;68047;-75
2022/07/22 08:38:05;;;;;;;23.80;13.70;;;;;;;22.39;85.01;99976.65;105075;1274;74323;-77
2022/07/22 08:40:57;;;;;;;22.70;13.30;;;;;;;22.79;82.64;99964.66;105161;1273;59769;-75
2022/07/22 08:43:52;;;;;;;21.00;13.20;;;;;;;23.28;80.31;99960.42;105068;1273;59883;-75
2022/07/22 08:46:44;;;;;;;22.40;13.70;;;;;;;23.57;78.55;99950.25;105061;1274;73139;-77
2022/07/22 08:49:40;;;;;;;27.30;14.30;;;;;;;23.89;76.43;99944.09;105160;1274;66803;-76
2022/07/22 08:52:41;;;;;;;22.30;12.70;;;;;;;24.43;75.33;99930.53;105292;1273;72600;-77
2022/07/22 08:55:29;;;;;;;19.80;13.00;;;;;;;26.43;71.89;99917.04;104948;1274;59708;-76
2022/07/22 08:58:17;;;;;;;22.10;12.80;;;;;;;28.21;63.80;99915.64;105207;1273;60493;-77
2022/07/22 09:01:05;;;;;;;15.70;10.70;;;;;;;30.00;57.35;99912.81;105008;1274;74774;-78
2022/07/22 09:03:56;;;;;;;16.60;10.40;;;;;;;31.35;54.43;99910.46;104984;1273;68032;-78
2022/07/22 09:06:49;;;;;;;20.00;12.10;;;;;;;31.38;50.70;99913.15;104997;1274;72849;-77
2022/07/22 09:09:38;;;;;;;13.40;9.70;;;;;;;31.48;50.98;99905.04;105219;1273;59646;-78
2022/07/22 09:13:09;;;;;;;15.70;8.90;;;;;;;32.98;46.34;99910.80;105587;1273;59849;-77
2022/07/22 09:16:48;;;;;;;12.80;8.10;;;;;;;33.93;43.74;99910.09;105441;1273;73779;-75
2022/07/22 09:20:00;;;;;;;12.00;7.30;;;;;;;34.71;40.36;99912.02;105146;1274;67931;-77
2022/07/22 09:22:55;;;;;;;11.10;7.10;;;;;;;34.96;38.56;99909.70;105057;1274;73441;-76
2022/07/22 09:25:47;;;;;;;9.40;6.00;;;;;;;34.93;38.61;99921.83;105275;1274;59691;-77
2022/07/22 09:28:56;;;;;;;9.70;5.90;;;;;;;34.65;37.52;99929.18;105027;1274;62398;-79
2022/07/22 09:31:52;;;;;;;10.50;6.00;;;;;;;34.96;37.12;99929.27;105022;1274;72237;-77
2022/07/22 09:35:06;;;;;;;9.90;5.10;;;;;;;35.47;36.68;99932.38;105257;1274;68003;-77
2022/07/22 09:38:12;;;;;;;11.20;5.00;;;;;;;36.09;35.01;99932.71;105171;1274;72871;-77
2022/07/22 09:41:01;;;;;;;8.90;4.30;;;;;;;36.44;32.37;99931.11;104941;1273;59772;-74
2022/07/22 09:43:52;;;;;;;8.60;4.70;;;;;;;36.57;31.65;99940.95;105051;1274;60986;-74
2022/07/22 09:46:45;;;;;;;8.70;4.70;;;;;;;37.00;31.44;99941.90;105005;1274;73798;-76
2022/07/22 09:49:45;;;;;;;8.90;4.00;;;;;;;37.38;30.77;99939.69;105261;1274;66740;-75
2022/07/22 09:53:05;;;;;;;8.60;4.40;;;;;;;37.44;31.04;99940.98;105315;1274;74406;-76
2022/07/22 09:56:02;;;;;;;9.30;4.40;;;;;;;37.65;31.26;99939.92;105058;1274;59648;-76
2022/07/22 09:58:50;;;;;;;9.40;5.10;;;;;;;37.41;29.93;99940.30;104948;1274;60999;-77
2022/07/22 10:01:45;;;;;;;9.00;4.70;;;;;;;37.07;31.38;99938.52;105069;1274;72035;-77
2022/07/22 10:04:35;;;;;;;9.20;5.20;;;;;;;37.44;30.09;99939.36;104952;1274;69793;-75
2022/07/22 10:07:27;;;;;;;8.80;5.10;;;;;;;37.39;30.59;99942.37;104954;1274;70946;-75
2022/07/22 10:10:25;;;;;;;8.90;4.70;;;;;;;38.05;28.86;99939.83;105393;1274;59703;-80
2022/07/22 10:13:13;;;;;;;8.40;5.40;;;;;;;37.19;29.58;99947.17;105093;1274;60854;-82
2022/07/22 10:16:02;;;;;;;10.00;5.60;;;;;;;36.37;31.11;99948.98;105109;1274;73149;-80
2022/07/22 10:18:50;;;;;;;9.00;5.70;;;;;;;35.59;32.79;99948.83;105427;1274;68740;-76
2022/07/22 10:21:41;;;;;;;11.40;6.70;;;;;;;34.79;34.04;99952.23;105844;1272;71667;-77
2022/07/22 10:24:29;;;;;;;11.00;6.80;;;;;;;33.87;35.07;99950.16;106013;1274;59800;-75
2022/07/22 10:27:46;;;;;;;11.50;7.00;;;;;;;33.24;37.08;99950.02;105806;1274;59663;-74
2022/07/22 10:30:40;;;;;;;11.80;6.90;;;;;;;33.70;36.19;99943.73;105982;1273;73209;-76
2022/07/22 10:33:32;;;;;;;11.10;6.30;;;;;;;34.36;35.24;99940.01;105985;1274;65702;-76
2022/07/22 10:36:37;;;;;;;10.80;6.90;;;;;;;35.30;33.44;99940.84;105313;1274;72745;-78
2022/07/22 10:39:25;;;;;;;10.90;7.00;;;;;;;35.82;32.10;99933.75;105223;1274;59627;-77
2022/07/22 10:42:13;;;;;;;12.30;6.90;;;;;;;36.23;31.59;99932.79;105058;1274;59730;-76
2022/07/22 10:45:03;;;;;;;12.70;7.10;;;;;;;35.72;32.23;99928.35;105045;1274;73020;-76
2022/07/22 10:47:56;;;;;;;11.40;7.10;;;;;;;35.80;32.39;99925.24;104967;1274;68220;-77
2022/07/22 10:50:57;;;;;;;12.50;9.10;;;;;;;36.76;31.81;99926.52;105052;1274;72875;-75
2022/07/22 10:54:01;;;;;;;10.10;6.80;;;;;;;37.91;29.90;99920.41;105404;1274;59697;-77
2022/07/22 10:56:52;;;;;;;9.30;6.10;;;;;;;38.67;28.58;99917.17;105069;1274;60545;-76
2022/07/22 10:59:39;;;;;;;10.60;6.90;;;;;;;39.24;27.45;99918.30;105006;1274;71703;-77
2022/07/22 11:02:28;;;;;;;10.90;8.10;;;;;;;39.47;26.35;99917.47;105114;1273;68608;-75
2022/07/22 11:05:34;;;;;;;10.50;7.00;;;;;;;38.74;27.50;99916.74;105142;1274;71522;-78
2022/07/22 11:08:23;;;;;;;11.00;6.90;;;;;;;37.39;28.69;99923.33;105180;1274;60075;-77
2022/07/22 11:11:11;;;;;;;11.00;7.50;;;;;;;36.35;30.22;99921.86;105294;1274;59608;-77
2022/07/22 11:14:01;;;;;;;11.80;8.10;;;;;;;35.37;32.24;99926.34;105061;1275;74319;-74
2022/07/22 11:16:51;;;;;;;11.40;7.70;;;;;;;34.46;34.55;99925.55;105009;1272;65598;-76
2022/07/22 11:19:39;;;;;;;11.20;6.90;;;;;;;33.73;35.50;99922.91;105111;1274;71631;-77
2022/07/22 11:22:28;;;;;;;10.80;7.50;;;;;;;32.93;37.49;99926.44;104979;1274;59790;-75
2022/07/22 11:25:17;;;;;;;12.10;7.50;;;;;;;32.02;38.63;99927.09;105237;1274;60187;-75
2022/07/22 11:28:06;;;;;;;11.60;7.30;;;;;;;31.30;40.17;99926.91;105035;1274;74789;-77
2022/07/22 11:31:08;;;;;;;10.80;7.50;;;;;;;30.58;42.11;99922.52;105430;1274;67967;-75
2022/07/22 11:34:13;;;;;;;11.20;7.30;;;;;;;29.87;43.89;99918.61;105378;1274;71926;-75
2022/07/22 11:37:01;;;;;;;11.40;7.40;;;;;;;29.26;45.34;99917.96;105093;1274;59772;-73
2022/07/22 11:39:51;;;;;;;11.80;8.20;;;;;;;28.74;48.45;99933.98;105301;1274;60239;-77
2022/07/22 11:42:39;;;;;;;13.90;8.40;;;;;;;28.19;51.08;99934.52;105519;1274;74895;-78
2022/07/22 11:45:27;;;;;;;13.20;8.70;;;;;;;27.76;55.33;99931.62;105059;1274;67827;-77
2022/07/22 11:48:19;;;;;;;12.70;8.20;;;;;;;27.49;57.97;99924.66;105311;1272;73377;-77
2022/07/22 11:51:10;;;;;;;12.60;9.00;;;;;;;27.56;57.55;99925.34;104980;1274;59698;-77
2022/07/22 11:54:08;;;;;;;12.60;9.00;;;;;;;27.92;59.16;99927.11;105316;1273;59653;-77
2022/07/22 11:56:56;;;;;;;14.10;9.60;;;;;;;28.10;56.54;99920.64;105016;1274;73207;-77
2022/07/22 11:59:45;;;;;;;13.20;8.40;;;;;;;28.33;56.30;99914.61;105012;1274;66904;-78
2022/07/22 12:02:34;;;;;;;13.80;8.80;;;;;;;28.54;56.35;99914.77;105266;1274;71874;-77
2022/07/22 12:05:24;;;;;;;15.00;9.60;;;;;;;28.64;57.53;99919.35;105317;1274;59781;-76
2022/07/22 12:08:21;;;;;;;12.80;9.50;;;;;;;28.57;56.70;99919.02;105097;1274;59568;-76
2022/07/22 12:11:11;;;;;;;11.90;8.30;;;;;;;28.42;54.76;99916.29;104811;1274;74690;-79
2022/07/22 12:14:16;;;;;;;13.40;8.70;;;;;;;28.44;53.13;99910.38;104969;1274;67915;-78
2022/07/22 12:17:10;;;;;;;12.10;9.00;;;;;;;28.78;53.30;99916.34;105256;1274;73406;-79
2022/07/22 12:20:12;;;;;;;13.50;8.60;;;;;;;28.93;52.43;99906.98;105243;1274;60062;-79
2022/07/22 12:23:02;;;;;;;16.60;10.60;;;;;;;28.86;54.14;99915.27;104937;1274;59670;-77
2022/07/22 12:25:59;;;;;;;14.90;10.10;;;;;;;28.54;55.13;99911.12;105282;1274;71943;-78
2022/07/22 12:28:47;;;;;;;13.90;9.60;;;;;;;28.22;56.42;99907.02;105132;1274;66520;-78
2022/07/22 12:31:53;;;;;;;21.50;9.80;;;;;;;28.00;57.56;99909.11;105049;1274;72782;-78
2022/07/22 12:34:45;;;;;;;16.90;9.70;;;;;;;27.70;58.61;99903.80;105011;1274;60510;-78
2022/07/22 12:37:42;;;;;;;13.60;9.80;;;;;;;27.50;59.40;99907.08;105131;1274;59662;-76
2022/07/22 12:40:30;;;;;;;14.10;10.40;;;;;;;27.31;60.03;99905.54;105000;1274;72990;-77
2022/07/22 12:43:26;;;;;;;15.40;9.90;;;;;;;27.20;61.66;99901.55;105196;1274;66535;-78
2022/07/22 12:46:16;;;;;;;14.30;10.50;;;;;;;27.07;62.90;99904.80;104875;1274;73296;-78
2022/07/22 12:49:04;;;;;;;15.50;10.70;;;;;;;27.09;63.68;99909.48;105194;1274;59690;-75
2022/07/22 12:52:13;;;;;;;16.60;10.70;;;;;;;27.25;63.45;99906.00;105037;1273;61261;-77
2022/07/22 12:55:01;;;;;;;15.30;10.80;;;;;;;27.63;61.61;99907.66;105173;1274;73297;-77
2022/07/22 12:57:49;;;;;;;13.50;9.60;;;;;;;27.76;59.07;99903.23;105071;1274;68081;-75
2022/07/22 13:00:43;;;;;;;14.00;9.80;;;;;;;27.79;58.11;99906.27;105084;1274;71310;-76
2022/07/22 13:03:32;;;;;;;17.50;10.30;;;;;;;27.84;58.56;99907.52;105237;1274;59714;-76